North Walsham, United Kingdom
Current Conditions -  °F | °C
As of 4:50 PM on Tuesday 27 Jan 2015 (Local Time) from EGSH Reporting Station
Broken Clouds Broken Clouds  
Wind Chill: 40°   Ceiling: 3000
Heat Index: 45°   Visibility: 6mi
Dew Point: 41°   Wind: 8mph
Humidity: 87%   Direction: 230°SW
Pressure: 30.21"   Gusts: NA
Location:  52.82°N, 1.39°E
Report Text: EGSH 271650Z 23007KT 9999 BKN030 07/05 Q1023 NOSIG
Loading
Personal Weather Stations






























Interactive Weather Map New forecast layout! Learn more

10-Day Weather Forecast

Advertisements
Track Severe Weather on mobile